createdAt,value
2018-12-06T00:00:07.772Z,99439.81
2018-12-06T00:02:39.351Z,99437.00
2018-12-06T00:05:09.547Z,99433.63
2018-12-06T00:07:46.454Z,99433.16
2018-12-06T00:10:17.666Z,99435.02
2018-12-06T00:12:48.385Z,99434.16
2018-12-06T00:15:26.476Z,99434.50
2018-12-06T00:17:56.854Z,99431.86
2018-12-06T00:20:27.241Z,99435.89
2018-12-06T00:22:57.863Z,99433.55
2018-12-06T00:25:29.078Z,99434.75
2018-12-06T00:27:59.684Z,99434.08
2018-12-06T00:33:18.507Z,99429.75
2018-12-06T00:35:48.676Z,99434.08
2018-12-06T00:38:18.877Z,99448.78
2018-12-06T00:43:31.647Z,99438.89
2018-12-06T00:46:02.147Z,99442.40
2018-12-06T00:48:32.406Z,99445.07
2018-12-06T00:51:02.640Z,99439.05
2018-12-06T00:53:32.908Z,99433.71
2018-12-06T00:56:03.350Z,99441.09
2018-12-06T00:58:33.979Z,99437.92
2018-12-06T01:01:04.992Z,99439.58
2018-12-06T01:06:13.050Z,99434.18
2018-12-06T01:08:43.333Z,99431.34
2018-12-06T01:11:14.047Z,99431.77
2018-12-06T01:13:45.330Z,99434.65
2018-12-06T01:16:19.843Z,99432.50
2018-12-06T01:18:50.838Z,99440.86
2018-12-06T01:21:22.558Z,99442.05
2018-12-06T01:23:53.680Z,99444.05
2018-12-06T01:26:25.030Z,99439.23
2018-12-06T01:28:55.445Z,99429.38
2018-12-06T01:31:25.863Z,99433.86
2018-12-06T01:33:56.891Z,99435.72
2018-12-06T01:36:28.455Z,99424.19
2018-12-06T01:38:58.693Z,99424.85
2018-12-06T01:41:29.251Z,99427.34
2018-12-06T01:43:59.760Z,99417.33
2018-12-06T01:46:29.839Z,99421.69
2018-12-06T01:49:00.295Z,99412.31
2018-12-06T01:51:30.731Z,99414.34
2018-12-06T01:54:01.878Z,99418.35
2018-12-06T01:56:36.202Z,99412.31
2018-12-06T01:59:06.478Z,99405.45
2018-12-06T02:01:36.637Z,99400.06
2018-12-06T02:04:06.901Z,99402.23
2018-12-06T02:06:37.174Z,99401.08
2018-12-06T02:09:10.636Z,99393.39
2018-12-06T02:11:41.898Z,99395.54
2018-12-06T02:16:49.698Z,99383.67
2018-12-06T02:19:19.870Z,99379.95
2018-12-06T02:21:50.035Z,99372.26
2018-12-06T02:26:57.543Z,99359.20
2018-12-06T02:29:31.676Z,99367.84
2018-12-06T02:44:46.017Z,99348.13
2018-12-06T02:47:17.141Z,99339.42
2018-12-06T02:49:47.153Z,99338.89
2018-12-06T02:54:59.665Z,99330.31
2018-12-06T02:57:30.186Z,99338.97
2018-12-06T03:00:00.548Z,99329.24
2018-12-06T03:02:30.904Z,99322.53
2018-12-06T03:05:01.478Z,99318.83
2018-12-06T03:07:31.905Z,99326.78
2018-12-06T03:10:02.556Z,99311.77
2018-12-06T03:12:32.870Z,99314.06
2018-12-06T03:15:03.515Z,99305.53
2018-12-06T03:20:13.243Z,99305.48
2018-12-06T03:22:43.971Z,99296.28
2018-12-06T03:25:14.403Z,99295.27
2018-12-06T03:27:48.397Z,99294.59
2018-12-06T03:56:53.764Z,99247.50
2018-12-06T03:59:23.831Z,99245.64
2018-12-06T04:01:54.177Z,99239.63
2018-12-06T04:04:25.389Z,99229.97
2018-12-06T04:06:56.186Z,99221.30
2018-12-06T04:09:27.032Z,99220.62
2018-12-06T04:11:57.354Z,99218.10
2018-12-06T04:14:27.428Z,99223.43
2018-12-06T04:16:57.792Z,99216.59
2018-12-06T04:19:29.030Z,99221.23
2018-12-06T04:21:59.619Z,99226.20
2018-12-06T04:24:33.876Z,99230.50
2018-12-06T04:27:04.188Z,99231.81
2018-12-06T04:32:11.905Z,99229.27
2018-12-06T04:34:41.957Z,99213.20
2018-12-06T04:37:12.299Z,99233.02
2018-12-06T04:42:19.357Z,99236.77
2018-12-06T04:44:49.366Z,99234.09
2018-12-06T04:47:20.801Z,99237.67
2018-12-06T04:49:51.328Z,99235.83
2018-12-06T04:52:21.678Z,99232.63
2018-12-06T04:54:51.966Z,99232.44
2018-12-06T04:57:22.731Z,99226.57
2018-12-06T04:59:53.065Z,99230.02
2018-12-06T05:02:23.724Z,99224.50
2018-12-06T05:04:54.866Z,99232.10
2018-12-06T05:07:25.020Z,99226.91
2018-12-06T05:09:55.466Z,99233.56
2018-12-06T05:12:25.566Z,99232.69
2018-12-06T05:14:55.587Z,99236.81
2018-12-06T05:17:26.191Z,99240.31
2018-12-06T05:19:56.644Z,99232.82
2018-12-06T05:22:27.442Z,99237.46
2018-12-06T05:24:58.380Z,99240.13
2018-12-06T05:27:28.859Z,99249.42
2018-12-06T05:29:59.111Z,99252.09
2018-12-06T05:32:29.907Z,99254.62
2018-12-06T05:35:00.732Z,99251.44
2018-12-06T05:37:31.950Z,99248.27
2018-12-06T05:40:02.297Z,99251.41
2018-12-06T05:42:32.394Z,99250.08
2018-12-06T05:45:02.827Z,99249.62
2018-12-06T05:47:34.019Z,99259.09
2018-12-06T05:50:05.345Z,99246.22
2018-12-06T05:52:36.366Z,99250.44
2018-12-06T05:55:06.798Z,99246.58
2018-12-06T05:57:37.506Z,99233.44
2018-12-06T06:00:10.304Z,99227.09
2018-12-06T06:02:41.021Z,99212.77
2018-12-06T06:05:11.991Z,99213.05
2018-12-06T06:07:42.087Z,99210.20
2018-12-06T06:12:49.438Z,99217.76
2018-12-06T06:15:21.135Z,99205.50
2018-12-06T06:17:52.307Z,99218.28
2018-12-06T06:20:24.246Z,99224.08
2018-12-06T06:22:56.343Z,99224.57
2018-12-06T06:25:26.791Z,99232.05
2018-12-06T06:27:57.601Z,99237.70
2018-12-06T06:30:27.952Z,99241.98
2018-12-06T06:35:38.968Z,99246.19
2018-12-06T06:38:10.565Z,99242.33
2018-12-06T06:40:41.629Z,99238.34
2018-12-06T06:43:12.867Z,99234.06
2018-12-06T06:45:43.493Z,99231.47
2018-12-06T06:48:14.030Z,99232.64
2018-12-06T06:50:46.249Z,99225.02
2018-12-06T06:53:16.934Z,99226.54
2018-12-06T06:55:48.442Z,99229.03
2018-12-06T06:58:19.838Z,99225.59
2018-12-06T07:00:52.157Z,99217.48
2018-12-06T07:03:22.821Z,99211.88
2018-12-06T07:05:54.111Z,99208.21
2018-12-06T07:08:26.121Z,99215.53
2018-12-06T07:10:56.755Z,99209.41
2018-12-06T07:16:05.162Z,99199.28
2018-12-06T07:18:36.948Z,99199.15
2018-12-06T07:21:09.062Z,99206.48
2018-12-06T07:23:40.425Z,99219.34
2018-12-06T07:26:12.403Z,99217.17
2018-12-06T07:28:42.972Z,99221.55
2018-12-06T07:33:50.978Z,99217.94
2018-12-06T07:39:08.888Z,99221.58
2018-12-06T07:41:45.820Z,99226.11
2018-12-06T07:44:16.801Z,99223.33
2018-12-06T07:46:49.009Z,99217.23
2018-12-06T07:49:20.251Z,99222.13
2018-12-06T07:51:51.005Z,99231.81
2018-12-06T07:54:21.013Z,99231.89
2018-12-06T07:56:51.199Z,99223.11
2018-12-06T08:01:58.660Z,99225.84
2018-12-06T08:04:28.704Z,99223.28
2018-12-06T08:06:58.907Z,99220.81
2018-12-06T08:09:29.115Z,99214.02
2018-12-06T08:11:59.517Z,99211.09
2018-12-06T08:14:29.991Z,99209.67
2018-12-06T08:17:00.881Z,99204.39
2018-12-06T08:19:31.427Z,99195.95
2018-12-06T08:22:05.874Z,99200.16
2018-12-06T08:24:36.338Z,99200.16
2018-12-06T08:27:06.515Z,99199.05
2018-12-06T08:32:13.667Z,99185.45
2018-12-06T08:34:43.930Z,99191.52
2018-12-06T08:37:16.080Z,99207.37
2018-12-06T08:39:46.478Z,99207.22
2018-12-06T08:42:17.102Z,99209.10
2018-12-06T08:44:47.746Z,99202.28
2018-12-06T08:47:17.966Z,99204.97
2018-12-06T08:49:48.395Z,99200.66
2018-12-06T08:52:19.371Z,99206.34
2018-12-06T08:54:50.260Z,99209.34
2018-12-06T08:57:21.223Z,99218.02
2018-12-06T08:59:53.232Z,99221.38
2018-12-06T09:02:26.775Z,99227.05
2018-12-06T09:04:59.790Z,99220.58
2018-12-06T09:07:32.656Z,99221.58
2018-12-06T09:10:07.515Z,99212.56
2018-12-06T09:12:40.668Z,99212.58
2018-12-06T09:15:17.179Z,99199.55
2018-12-06T09:17:49.445Z,99199.05
2018-12-06T09:20:22.392Z,99208.06
2018-12-06T09:22:55.646Z,99199.73
2018-12-06T09:28:04.262Z,99184.02
2018-12-06T09:30:35.571Z,99187.17
2018-12-06T09:33:09.819Z,99179.16
2018-12-06T09:35:43.239Z,99166.62
2018-12-06T09:38:17.295Z,99158.95
2018-12-06T09:40:50.258Z,99155.74
2018-12-06T09:43:22.886Z,99150.60
2018-12-06T09:45:56.490Z,99157.08
2018-12-06T09:48:30.337Z,99152.73
2018-12-06T09:51:03.389Z,99149.91
2018-12-06T09:53:37.135Z,99145.23
2018-12-06T09:56:08.381Z,99137.38
2018-12-06T09:58:41.756Z,99129.56
2018-12-06T10:01:13.850Z,99121.70
2018-12-06T10:03:46.490Z,99120.02
2018-12-06T10:06:19.492Z,99115.17
2018-12-06T10:08:52.322Z,99108.66
2018-12-06T10:11:25.627Z,99088.91
2018-12-06T10:14:00.856Z,99083.23
2018-12-06T10:16:32.883Z,99072.69
2018-12-06T10:19:06.182Z,99077.19
2018-12-06T10:24:20.541Z,99078.49
2018-12-06T10:26:53.502Z,99068.09
2018-12-06T10:29:26.752Z,99075.92
2018-12-06T10:31:59.858Z,99069.84
2018-12-06T10:34:35.253Z,99067.80
2018-12-06T10:37:06.986Z,99066.81
2018-12-06T10:39:39.531Z,99070.28
2018-12-06T10:44:50.366Z,99066.34
2018-12-06T10:47:24.464Z,99066.67
2018-12-06T10:50:01.183Z,99062.91
2018-12-06T10:52:33.376Z,99064.02
2018-12-06T10:55:06.577Z,99060.97
2018-12-06T10:57:39.251Z,99059.94
2018-12-06T11:00:16.068Z,99060.56
2018-12-06T11:05:35.208Z,99063.17
2018-12-06T11:08:08.642Z,99063.33
2018-12-06T11:10:40.728Z,99055.28
2018-12-06T11:15:48.237Z,99053.67
2018-12-06T11:18:23.579Z,99040.77
2018-12-06T11:20:56.055Z,99039.34
2018-12-06T11:23:28.812Z,99031.89
2018-12-06T11:26:01.207Z,99024.45
2018-12-06T11:28:34.438Z,99016.34
2018-12-06T11:31:13.949Z,99009.89
2018-12-06T11:33:45.409Z,99018.18
2018-12-06T11:36:19.279Z,99016.25
2018-12-06T11:38:52.185Z,99015.87
2018-12-06T11:41:24.663Z,99013.13
2018-12-06T11:43:57.077Z,99021.55
2018-12-06T11:46:30.115Z,99004.80
2018-12-06T11:49:01.656Z,99007.28
2018-12-06T11:51:34.402Z,99010.23
2018-12-06T11:54:07.093Z,99012.17
2018-12-06T11:56:39.226Z,99010.95
2018-12-06T11:59:13.301Z,99002.87
2018-12-06T12:01:45.587Z,98998.00
2018-12-06T12:04:17.611Z,99003.70
2018-12-06T12:06:49.568Z,99005.63
2018-12-06T12:09:22.404Z,99014.69
2018-12-06T12:11:54.852Z,99017.73
2018-12-06T12:14:29.458Z,99019.44
2018-12-06T12:17:03.594Z,99016.22
2018-12-06T12:19:37.461Z,99011.53
2018-12-06T12:22:14.673Z,99006.27
2018-12-06T12:24:47.631Z,99006.90
2018-12-06T12:27:19.580Z,99001.16
2018-12-06T12:29:53.055Z,98992.89
2018-12-06T12:32:24.824Z,98984.58
2018-12-06T12:34:58.313Z,98978.55
2018-12-06T12:40:09.268Z,98983.76
2018-12-06T12:42:41.105Z,98988.11
2018-12-06T12:45:14.211Z,98972.39
2018-12-06T12:47:47.650Z,98979.13
2018-12-06T12:52:56.948Z,98982.38
2018-12-06T12:55:29.741Z,98980.88
2018-12-06T12:58:02.717Z,98982.44
2018-12-06T13:00:35.545Z,98982.27
2018-12-06T13:03:09.551Z,98986.34
2018-12-06T13:05:42.357Z,98970.19
2018-12-06T13:08:15.991Z,98969.91
2018-12-06T13:10:48.467Z,98958.59
2018-12-06T13:13:21.908Z,98954.63
2018-12-06T13:15:52.926Z,98937.09
2018-12-06T13:18:26.280Z,98936.91
2018-12-06T13:20:58.184Z,98926.55
2018-12-06T13:23:33.350Z,98924.33
2018-12-06T13:26:09.775Z,98921.86
2018-12-06T13:28:42.482Z,98919.00
2018-12-06T13:31:16.727Z,98915.52
2018-12-06T13:33:49.206Z,98923.45
2018-12-06T13:36:22.379Z,98930.62
2018-12-06T13:38:54.440Z,98925.60
2018-12-06T13:41:27.699Z,98919.39
2018-12-06T13:44:01.033Z,98906.23
2018-12-06T13:46:33.617Z,98909.20
2018-12-06T13:49:05.737Z,98902.13
2018-12-06T13:55:30.038Z,98899.67
2018-12-06T13:58:04.309Z,98897.08
2018-12-06T14:00:35.007Z,98888.36
2018-12-06T14:05:42.309Z,98895.95
2018-12-06T14:08:12.975Z,98899.22
2018-12-06T14:10:43.618Z,98902.03
2018-12-06T14:13:14.124Z,98896.63
2018-12-06T14:18:21.563Z,98891.52
2018-12-06T14:23:29.145Z,98906.48
2018-12-06T14:26:00.009Z,98902.52
2018-12-06T14:28:30.711Z,98921.24
2018-12-06T14:31:01.291Z,98911.13
2018-12-06T14:33:31.970Z,98914.68
2018-12-06T14:36:03.567Z,98918.20
2018-12-06T14:41:11.117Z,98917.59
2018-12-06T14:46:18.473Z,98925.16
2018-12-06T14:48:49.091Z,98913.33
2018-12-06T14:53:56.258Z,98925.17
2018-12-06T14:56:27.596Z,98919.95
2018-12-06T14:58:58.492Z,98923.83
2018-12-06T15:04:06.330Z,98928.88
2018-12-06T15:06:37.773Z,98926.53
2018-12-06T15:09:09.144Z,98928.03
2018-12-06T15:11:39.857Z,98924.22
2018-12-06T15:14:10.789Z,98929.60
2018-12-06T15:16:42.507Z,98928.09
2018-12-06T15:21:49.152Z,98926.50
2018-12-06T15:24:19.105Z,98931.86
2018-12-06T15:26:49.083Z,98936.73
2018-12-06T15:29:19.321Z,98929.59
2018-12-06T15:31:49.621Z,98922.73
2018-12-06T15:34:19.835Z,98918.55
2018-12-06T15:36:50.057Z,98909.35
2018-12-06T15:39:20.330Z,98901.49
2018-12-06T15:41:50.798Z,98903.13
2018-12-06T15:44:21.093Z,98894.94
2018-12-06T15:46:51.406Z,98896.58
2018-12-06T15:49:21.443Z,98885.38
2018-12-06T15:54:28.048Z,98892.70
2018-12-06T15:56:58.914Z,98890.87
2018-12-06T15:59:29.393Z,98896.22
2018-12-06T16:01:59.512Z,98890.20
2018-12-06T16:04:29.991Z,98875.47
2018-12-06T16:07:00.505Z,98890.50
2018-12-06T16:12:08.464Z,98892.31
2018-12-06T16:14:38.473Z,98885.28
2018-12-06T16:17:08.846Z,98880.07
2018-12-06T16:19:38.959Z,98873.58
2018-12-06T16:22:09.645Z,98878.93
2018-12-06T16:24:40.372Z,98870.89
2018-12-06T16:27:10.852Z,98868.72
2018-12-06T16:29:41.052Z,98866.55
2018-12-06T16:32:12.018Z,98866.55
2018-12-06T16:34:42.312Z,98863.59
2018-12-06T16:37:12.603Z,98865.41
2018-12-06T16:42:22.912Z,98870.06
2018-12-06T16:44:53.181Z,98870.56
2018-12-06T16:47:23.490Z,98871.45
2018-12-06T16:49:54.098Z,98862.89
2018-12-06T16:52:24.228Z,98858.08
2018-12-06T16:54:54.545Z,98859.94
2018-12-06T17:00:01.909Z,98852.55
2018-12-06T17:02:32.897Z,98849.87
2018-12-06T17:05:03.452Z,98848.23
2018-12-06T17:07:34.073Z,98838.86
2018-12-06T17:10:05.114Z,98838.03
2018-12-06T17:12:35.596Z,98836.69
2018-12-06T17:15:07.161Z,98838.80
2018-12-06T17:20:13.781Z,98839.88
2018-12-06T17:22:43.895Z,98836.23
2018-12-06T17:25:13.909Z,98834.39
2018-12-06T17:30:20.852Z,98831.07
2018-12-06T17:32:51.756Z,98820.89
2018-12-06T17:35:22.222Z,98820.59
2018-12-06T17:37:53.306Z,98811.42
2018-12-06T17:40:24.773Z,98812.13
2018-12-06T17:42:56.087Z,98814.10
2018-12-06T17:45:27.529Z,98816.78
2018-12-06T17:48:00.043Z,98804.93
2018-12-06T17:50:30.618Z,98806.61
2018-12-06T17:53:02.728Z,98802.06
2018-12-06T17:55:34.096Z,98768.06
2018-12-06T17:58:06.170Z,98752.94
2018-12-06T18:00:38.832Z,98750.56
2018-12-06T18:05:49.063Z,98751.27
2018-12-06T18:08:19.703Z,98765.12
2018-12-06T18:13:26.948Z,98796.53
2018-12-06T18:16:01.790Z,98786.09
2018-12-06T18:18:40.249Z,98772.55
2018-12-06T18:21:07.047Z,98748.69
2018-12-06T18:23:38.161Z,98711.82
2018-12-06T18:26:09.753Z,98707.47
2018-12-06T18:28:40.029Z,98718.22
2018-12-06T18:31:10.849Z,98716.24
2018-12-06T18:33:41.688Z,98739.76
2018-12-06T18:36:11.676Z,98748.45
2018-12-06T18:38:42.764Z,98752.41
2018-12-06T18:41:13.921Z,98767.95
2018-12-06T18:46:22.111Z,98772.71
2018-12-06T18:48:52.862Z,98770.53
2018-12-06T18:51:24.129Z,98767.36
2018-12-06T18:53:56.468Z,98764.88
2018-12-06T18:59:19.235Z,98767.78
2018-12-06T19:01:52.171Z,98760.19
2018-12-06T19:04:25.200Z,98765.50
2018-12-06T19:06:57.990Z,98768.59
2018-12-06T19:09:28.571Z,98767.92
2018-12-06T19:12:00.169Z,98766.81
2018-12-06T19:14:30.713Z,98771.51
2018-12-06T19:17:02.454Z,98759.09
2018-12-06T19:19:39.024Z,98747.24
2018-12-06T19:22:10.373Z,98749.25
2018-12-06T19:24:42.321Z,98753.47
2018-12-06T19:27:13.523Z,98753.27
2018-12-06T19:29:44.305Z,98749.92
2018-12-06T19:32:16.827Z,98752.22
2018-12-06T19:34:47.298Z,98748.47
2018-12-06T19:37:18.028Z,98741.91
2018-12-06T19:39:48.433Z,98736.38
2018-12-06T19:42:22.816Z,98732.03
2018-12-06T19:44:53.129Z,98724.63
2018-12-06T19:47:23.191Z,98716.94
2018-12-06T19:49:54.097Z,98712.95
2018-12-06T19:52:24.613Z,98707.94
2018-12-06T19:54:55.345Z,98694.92
2018-12-06T19:57:26.218Z,98692.38
2018-12-06T19:59:57.030Z,98684.58
2018-12-06T20:02:27.164Z,98676.05
2018-12-06T20:04:57.995Z,98664.00
2018-12-06T20:07:28.242Z,98664.63
2018-12-06T20:09:58.617Z,98668.27
2018-12-06T20:12:29.210Z,98677.19
2018-12-06T20:14:59.848Z,98688.81
2018-12-06T20:17:31.616Z,98692.08
2018-12-06T20:22:39.105Z,98684.63
2018-12-06T20:25:09.217Z,98684.89
2018-12-06T20:27:39.862Z,98691.00
2018-12-06T20:32:47.358Z,98695.30
2018-12-06T20:35:17.514Z,98699.23
2018-12-06T20:37:47.854Z,98697.73
2018-12-06T20:40:18.498Z,98688.98
2018-12-06T20:42:48.691Z,98695.92
2018-12-06T20:45:20.706Z,98689.05
2018-12-06T20:47:52.035Z,98683.54
2018-12-06T20:50:22.397Z,98674.70
2018-12-06T20:52:53.890Z,98657.58
2018-12-06T20:58:00.581Z,98672.64
2018-12-06T21:00:30.787Z,98664.10
2018-12-06T21:05:38.466Z,98666.33
2018-12-06T21:08:08.557Z,98662.05
2018-12-06T21:10:39.215Z,98665.69
2018-12-06T21:13:09.328Z,98663.89
2018-12-06T21:15:39.321Z,98664.55
2018-12-06T21:18:10.879Z,98667.16
2018-12-06T21:20:41.046Z,98653.58
2018-12-06T21:23:11.049Z,98655.72
2018-12-06T21:25:41.316Z,98653.42
2018-12-06T21:28:11.463Z,98652.50
2018-12-06T21:30:45.721Z,98656.31
2018-12-06T21:33:15.973Z,98654.22
2018-12-06T21:35:47.290Z,98654.64
2018-12-06T21:38:17.207Z,98648.89
2018-12-06T21:40:47.376Z,98651.28
2018-12-06T21:43:17.664Z,98654.38
2018-12-06T21:45:47.964Z,98649.11
2018-12-06T21:48:18.063Z,98646.72
2018-12-06T21:50:48.677Z,98642.91
2018-12-06T21:53:23.753Z,98649.61
2018-12-06T21:58:30.613Z,98664.34
2018-12-06T22:01:01.069Z,98655.17
2018-12-06T22:03:31.436Z,98655.92
2018-12-06T22:06:02.018Z,98655.09
2018-12-06T22:08:32.543Z,98656.81
2018-12-06T22:11:02.778Z,98656.94
2018-12-06T22:16:09.719Z,98663.25
2018-12-06T22:18:39.649Z,98650.69
2018-12-06T22:23:46.974Z,98640.28
2018-12-06T22:26:17.114Z,98635.52
2018-12-06T22:31:24.519Z,98629.41
2018-12-06T22:33:54.758Z,98634.44
2018-12-06T22:36:25.042Z,98630.30
2018-12-06T22:38:59.205Z,98634.48
2018-12-06T22:41:29.747Z,98631.00
2018-12-06T22:43:59.935Z,98627.28
2018-12-06T22:46:30.666Z,98622.14
2018-12-06T22:49:01.418Z,98624.86
2018-12-06T22:51:31.756Z,98622.56
2018-12-06T22:54:02.160Z,98623.35
2018-12-06T22:56:32.691Z,98624.69
2018-12-06T22:59:03.130Z,98619.84
2018-12-06T23:01:38.721Z,98625.58
2018-12-06T23:06:47.612Z,98614.62
2018-12-06T23:09:17.661Z,98621.56
2018-12-06T23:11:47.977Z,98619.89
2018-12-06T23:14:18.637Z,98610.64
2018-12-06T23:16:48.621Z,98606.45
2018-12-06T23:19:19.709Z,98610.64
2018-12-06T23:21:49.845Z,98596.23
2018-12-06T23:24:20.206Z,98585.52
2018-12-06T23:29:26.919Z,98568.44
2018-12-06T23:34:33.573Z,98552.42
2018-12-06T23:37:03.839Z,98547.00
2018-12-06T23:39:34.312Z,98553.02
2018-12-06T23:42:05.459Z,98552.11
2018-12-06T23:44:35.568Z,98552.06
2018-12-06T23:47:05.895Z,98551.99
2018-12-06T23:49:37.743Z,98546.56
2018-12-06T23:52:07.743Z,98535.98
2018-12-06T23:57:17.451Z,98550.28
2018-12-06T23:59:47.514Z,98553.19
